createdAt,value
2023-12-30T00:01:00.520Z,97781.75
2023-12-30T00:03:29.136Z,97777.53
2023-12-30T00:05:57.694Z,97771.88
2023-12-30T00:08:26.166Z,97772.69
2023-12-30T00:10:54.669Z,97761.28
2023-12-30T00:13:23.119Z,97758.84
2023-12-30T00:15:53.003Z,97761.97
2023-12-30T00:18:21.547Z,97771.59
2023-12-30T00:20:50.109Z,97775.66
2023-12-30T00:23:19.276Z,97772.41
2023-12-30T00:25:47.823Z,97777.09
2023-12-30T00:28:16.250Z,97770.06
2023-12-30T00:30:44.760Z,97781.84
2023-12-30T00:33:15.259Z,97780.22
2023-12-30T00:35:44.325Z,97782.47
2023-12-30T00:38:14.255Z,97778.50
2023-12-30T00:40:43.736Z,97777.53
2023-12-30T00:43:12.366Z,97770.88
2023-12-30T00:45:40.832Z,97783.56
2023-12-30T00:48:09.376Z,97776.53
2023-12-30T00:50:39.253Z,97774.53
2023-12-30T00:53:07.682Z,97784.97
2023-12-30T00:55:36.160Z,97788.41
2023-12-30T00:58:04.982Z,97789.38
2023-12-30T01:00:33.565Z,97789.59
2023-12-30T01:03:02.285Z,97789.59
2023-12-30T01:05:30.870Z,97786.59
2023-12-30T01:08:00.657Z,97798.22
2023-12-30T01:10:29.345Z,97797.41
2023-12-30T01:12:57.863Z,97796.22
2023-12-30T01:15:26.505Z,97797.41
2023-12-30T01:17:55.036Z,97811.66
2023-12-30T01:20:23.572Z,97807.63
2023-12-30T01:22:52.052Z,97813.50
2023-12-30T01:25:22.065Z,97816.53
2023-12-30T01:27:50.610Z,97817.53
2023-12-30T01:30:19.269Z,97810.31
2023-12-30T01:32:47.907Z,97815.09
2023-12-30T01:35:17.030Z,97811.59
2023-12-30T01:37:45.555Z,97827.06
2023-12-30T01:40:14.384Z,97822.22
2023-12-30T01:42:44.336Z,97822.03
2023-12-30T01:45:13.274Z,97838.69
2023-12-30T01:47:42.381Z,97838.22
2023-12-30T01:50:12.764Z,97835.78
2023-12-30T01:52:45.715Z,97841.66
2023-12-30T01:55:14.739Z,97833.38
2023-12-30T01:57:46.712Z,97841.81
2023-12-30T02:00:22.271Z,97834.09
2023-12-30T02:02:51.383Z,97840.94
2023-12-30T02:05:20.186Z,97851.00
2023-12-30T02:07:49.615Z,97852.34
2023-12-30T02:10:18.218Z,97846.94
2023-12-30T02:12:48.105Z,97848.38
2023-12-30T02:15:18.760Z,97840.75
2023-12-30T02:17:48.980Z,97835.34
2023-12-30T02:20:18.022Z,97836.69
2023-12-30T02:22:49.530Z,97844.50
2023-12-30T02:25:18.661Z,97833.03
2023-12-30T02:27:48.091Z,97842.03
2023-12-30T02:30:17.551Z,97842.47
2023-12-30T02:32:46.047Z,97848.47
2023-12-30T02:35:14.609Z,97843.44
2023-12-30T02:37:42.985Z,97848.47
2023-12-30T02:40:13.901Z,97844.88
2023-12-30T02:42:42.801Z,97839.66
2023-12-30T02:45:13.768Z,97848.13
2023-12-30T02:47:42.186Z,97846.66
2023-12-30T02:50:11.682Z,97846.88
2023-12-30T02:52:40.197Z,97843.09
2023-12-30T02:55:09.285Z,97844.50
2023-12-30T02:57:48.521Z,97839.03
2023-12-30T03:00:19.810Z,97823.41
2023-12-30T03:02:48.395Z,97836.44
2023-12-30T03:05:17.447Z,97843.91
2023-12-30T03:07:46.084Z,97842.91
2023-12-30T03:10:14.742Z,97837.88
2023-12-30T03:12:44.656Z,97844.50
2023-12-30T03:15:13.107Z,97841.53
2023-12-30T03:17:41.591Z,97842.56
2023-12-30T03:20:11.799Z,97847.56
2023-12-30T03:22:40.294Z,97852.25
2023-12-30T03:25:09.830Z,97850.63
2023-12-30T03:27:38.324Z,97841.53
2023-12-30T03:30:10.222Z,97840.56
2023-12-30T03:32:38.727Z,97841.75
2023-12-30T03:35:08.788Z,97847.41
2023-12-30T03:37:37.228Z,97849.81
2023-12-30T03:40:07.514Z,97856.84
2023-12-30T03:42:36.005Z,97864.47
2023-12-30T03:45:06.068Z,97850.63
2023-12-30T03:47:35.862Z,97865.91
2023-12-30T03:50:04.991Z,97865.28
2023-12-30T03:52:33.611Z,97870.34
2023-12-30T03:55:02.271Z,97865.13
2023-12-30T03:57:30.750Z,97877.97
2023-12-30T03:59:59.473Z,97878.59
2023-12-30T04:02:27.954Z,97875.19
2023-12-30T04:04:57.867Z,97877.97
2023-12-30T04:07:26.487Z,97868.19
2023-12-30T04:09:55.058Z,97867.38
2023-12-30T04:12:23.642Z,97873.19
2023-12-30T04:14:52.164Z,97875.34
2023-12-30T04:17:20.636Z,97879.75
2023-12-30T04:19:52.230Z,97881.53
2023-12-30T04:22:22.159Z,97865.56
2023-12-30T04:24:50.728Z,97866.00
2023-12-30T04:27:19.270Z,97869.59
2023-12-30T04:29:47.705Z,97871.41
2023-12-30T04:32:16.128Z,97874.81
2023-12-30T04:34:44.732Z,97883.25
2023-12-30T04:37:13.440Z,97884.06
2023-12-30T04:39:43.306Z,97882.00
2023-12-30T04:42:12.586Z,97879.38
2023-12-30T04:44:41.131Z,97880.56
2023-12-30T04:47:09.612Z,97882.19
2023-12-30T04:49:38.668Z,97886.44
2023-12-30T04:52:07.977Z,97878.78
2023-12-30T04:54:36.437Z,97886.59
2023-12-30T04:57:06.679Z,97885.34
2023-12-30T04:59:37.421Z,97879.13
2023-12-30T05:02:06.502Z,97878.16
2023-12-30T05:04:35.042Z,97887.78
2023-12-30T05:07:03.760Z,97879.59
2023-12-30T05:09:32.523Z,97886.06
2023-12-30T05:12:01.003Z,97894.50
2023-12-30T05:14:30.757Z,97884.44
2023-12-30T05:16:59.389Z,97899.72
2023-12-30T05:19:27.883Z,97897.13
2023-12-30T05:21:56.444Z,97898.75
2023-12-30T05:24:24.966Z,97906.72
2023-12-30T05:26:53.400Z,97905.66
2023-12-30T05:29:21.885Z,97901.34
2023-12-30T05:31:51.886Z,97914.19
2023-12-30T05:34:20.473Z,97920.22
2023-12-30T05:36:49.087Z,97919.97
2023-12-30T05:39:17.653Z,97917.34
2023-12-30T05:41:46.156Z,97927.59
2023-12-30T05:44:14.769Z,97936.44
2023-12-30T05:46:43.438Z,97935.88
2023-12-30T05:49:13.473Z,97937.84
2023-12-30T05:51:45.346Z,97945.31
2023-12-30T05:54:14.405Z,97948.53
2023-12-30T05:56:42.907Z,97953.16
2023-12-30T05:59:11.347Z,97942.34
2023-12-30T06:01:47.425Z,97943.16
2023-12-30T06:04:17.626Z,97956.81
2023-12-30T06:06:46.938Z,97958.81
2023-12-30T06:09:15.422Z,97960.06
2023-12-30T06:11:44.187Z,97961.06
2023-12-30T06:14:12.845Z,97968.25
2023-12-30T06:16:41.412Z,97970.50
2023-12-30T06:19:10.457Z,97971.50
2023-12-30T06:21:40.811Z,97970.66
2023-12-30T06:24:09.387Z,97973.66
2023-12-30T06:26:39.832Z,97978.84
2023-12-30T06:29:10.168Z,97973.72
2023-12-30T06:31:43.241Z,97975.34
2023-12-30T06:34:12.162Z,97977.78
2023-12-30T06:36:44.608Z,97974.72
2023-12-30T06:39:14.135Z,97979.22
2023-12-30T06:41:43.051Z,97992.88
2023-12-30T06:44:11.726Z,97982.81
2023-12-30T06:46:41.512Z,97981.63
2023-12-30T06:49:10.158Z,97977.22
2023-12-30T06:51:38.822Z,97986.06
2023-12-30T06:54:09.765Z,97986.84
2023-12-30T06:56:38.525Z,97992.72
2023-12-30T06:59:07.027Z,97988.47
2023-12-30T07:01:40.616Z,98000.25
2023-12-30T07:04:09.426Z,97993.25
2023-12-30T07:06:38.126Z,97990.00
2023-12-30T07:09:06.732Z,97980.84
2023-12-30T07:11:36.825Z,97985.06
2023-12-30T07:14:05.413Z,97984.44
2023-12-30T07:16:33.957Z,97990.81
2023-12-30T07:19:02.621Z,97986.41
2023-12-30T07:21:32.813Z,97991.63
2023-12-30T07:24:01.420Z,97994.94
2023-12-30T07:26:30.030Z,97995.13
2023-12-30T07:29:00.529Z,98000.81
2023-12-30T07:31:29.071Z,98000.00
2023-12-30T07:33:58.573Z,98017.25
2023-12-30T07:36:28.281Z,98005.00
2023-12-30T07:38:56.785Z,98013.84
2023-12-30T07:41:25.432Z,98015.78
2023-12-30T07:43:53.905Z,98016.81
2023-12-30T07:46:26.866Z,98013.84
2023-12-30T07:48:55.609Z,98013.56
2023-12-30T07:51:24.837Z,98014.00
2023-12-30T07:53:53.503Z,98015.78
2023-12-30T07:56:22.076Z,98019.22
2023-12-30T07:58:50.552Z,98023.00
2023-12-30T08:01:19.934Z,98013.19
2023-12-30T08:03:50.181Z,98023.81
2023-12-30T08:06:18.819Z,98014.81
2023-12-30T08:08:47.416Z,98021.00
2023-12-30T08:11:16.316Z,98026.69
2023-12-30T08:13:44.821Z,98014.81
2023-12-30T08:16:13.824Z,98012.66
2023-12-30T08:18:42.402Z,98016.72
2023-12-30T08:21:12.364Z,98026.78
2023-12-30T08:23:40.887Z,98016.34
2023-12-30T08:26:09.427Z,98018.78
2023-12-30T08:28:38.134Z,98011.78
2023-12-30T08:31:06.919Z,98019.63
2023-12-30T08:33:35.586Z,98012.41
2023-12-30T08:36:04.491Z,98010.44
2023-12-30T08:38:34.431Z,98013.84
2023-12-30T08:41:03.733Z,98017.63
2023-12-30T08:43:32.674Z,98027.53
2023-12-30T08:46:01.414Z,98025.09
2023-12-30T08:48:30.174Z,98018.88
2023-12-30T08:50:59.604Z,98021.94
2023-12-30T08:53:28.266Z,98027.97
2023-12-30T08:55:58.463Z,98027.97
2023-12-30T08:58:27.179Z,98029.25
2023-12-30T09:00:56.147Z,98030.06
2023-12-30T09:03:24.750Z,98029.72
2023-12-30T09:05:53.860Z,98032.94
2023-12-30T09:08:22.312Z,98029.50
2023-12-30T09:10:50.857Z,98040.97
2023-12-30T09:13:20.795Z,98042.91
2023-12-30T09:15:49.340Z,98049.75
2023-12-30T09:18:17.989Z,98053.34
2023-12-30T09:20:46.822Z,98051.03
2023-12-30T09:23:15.715Z,98058.31
2023-12-30T09:25:44.374Z,98061.28
2023-12-30T09:28:13.073Z,98067.31
2023-12-30T09:30:43.098Z,98068.59
2023-12-30T09:33:12.699Z,98068.75
2023-12-30T09:35:42.045Z,98076.88
2023-12-30T09:38:10.633Z,98081.63
2023-12-30T09:40:39.411Z,98086.47
2023-12-30T09:43:14.320Z,98088.13
2023-12-30T09:45:44.995Z,98088.72
2023-12-30T09:48:15.401Z,98088.72
2023-12-30T09:50:45.406Z,98095.06
2023-12-30T09:53:13.935Z,98095.69
2023-12-30T09:55:42.537Z,98099.72
2023-12-30T09:58:12.269Z,98087.69
2023-12-30T10:00:44.779Z,98089.38
2023-12-30T10:03:14.762Z,98091.53
2023-12-30T10:05:44.092Z,98095.16
2023-12-30T10:08:13.011Z,98092.34
2023-12-30T10:10:46.007Z,98097.50
2023-12-30T10:13:16.276Z,98089.31
2023-12-30T10:15:46.330Z,98094.59
2023-12-30T10:18:16.761Z,98098.66
2023-12-30T10:20:48.754Z,98095.50
2023-12-30T10:23:17.448Z,98099.19
2023-12-30T10:25:47.909Z,98095.44
2023-12-30T10:28:16.869Z,98095.50
2023-12-30T10:30:48.633Z,98092.81
2023-12-30T10:33:18.739Z,98100.66
2023-12-30T10:35:47.485Z,98097.88
2023-12-30T10:38:16.699Z,98092.28
2023-12-30T10:40:46.188Z,98089.91
2023-12-30T10:43:14.823Z,98087.97
2023-12-30T10:45:43.733Z,98077.88
2023-12-30T10:48:14.086Z,98081.28
2023-12-30T10:50:48.769Z,98075.25
2023-12-30T10:53:29.886Z,98072.44
2023-12-30T10:56:02.225Z,98079.09
2023-12-30T10:58:35.613Z,98072.16
2023-12-30T11:01:06.751Z,98070.56
2023-12-30T11:03:37.874Z,98067.31
2023-12-30T11:06:20.959Z,98063.34
2023-12-30T11:08:49.565Z,98065.59
2023-12-30T11:11:20.650Z,98063.19
2023-12-30T11:13:49.330Z,98067.22
2023-12-30T11:16:20.129Z,98062.75
2023-12-30T11:18:52.836Z,98060.47
2023-12-30T11:21:41.285Z,98065.88
2023-12-30T11:24:13.500Z,98067.69
2023-12-30T11:26:46.630Z,98058.78
2023-12-30T11:29:19.260Z,98055.97
2023-12-30T11:31:50.600Z,98049.78
2023-12-30T11:34:21.500Z,98041.94
2023-12-30T11:36:51.341Z,98040.59
2023-12-30T11:39:28.390Z,98046.53
2023-12-30T11:41:59.551Z,98035.44
2023-12-30T11:44:30.138Z,98034.03
2023-12-30T11:46:59.875Z,98032.47
2023-12-30T11:49:30.454Z,98034.47
2023-12-30T11:52:09.294Z,98022.66
2023-12-30T11:54:41.804Z,98028.25
2023-12-30T11:57:10.721Z,98026.44
2023-12-30T11:59:40.384Z,98020.06
2023-12-30T12:02:12.807Z,98018.06
2023-12-30T12:04:43.385Z,98013.38
2023-12-30T12:07:13.625Z,98013.66
2023-12-30T12:09:44.325Z,98010.50
2023-12-30T12:12:13.690Z,98003.38
2023-12-30T12:14:51.483Z,98010.22
2023-12-30T12:17:21.808Z,98002.41
2023-12-30T12:19:52.954Z,97997.78
2023-12-30T12:22:22.565Z,98004.09
2023-12-30T12:24:51.614Z,97995.44
2023-12-30T12:27:24.992Z,97997.06
2023-12-30T12:29:55.690Z,97989.47
2023-12-30T12:32:25.526Z,97992.72
2023-12-30T12:34:55.691Z,97987.50
2023-12-30T12:37:25.017Z,97994.91
2023-12-30T12:39:54.143Z,97993.44
2023-12-30T12:42:27.875Z,98003.09
2023-12-30T12:44:59.671Z,98000.94
2023-12-30T12:47:28.480Z,98000.19
2023-12-30T12:49:59.192Z,97990.56
2023-12-30T12:52:27.778Z,98001.06
2023-12-30T12:54:59.724Z,97994.84
2023-12-30T12:57:31.741Z,97991.38
2023-12-30T13:00:01.341Z,97999.56
2023-12-30T13:02:34.372Z,97985.78
2023-12-30T13:05:05.616Z,97980.56
2023-12-30T13:07:36.045Z,97972.50
2023-12-30T13:10:18.358Z,97985.03
2023-12-30T13:12:47.477Z,97980.19
2023-12-30T13:15:20.563Z,97978.56
2023-12-30T13:17:49.557Z,97970.22
2023-12-30T13:20:20.056Z,97977.66
2023-12-30T13:22:56.601Z,97978.47
2023-12-30T13:25:27.697Z,97978.47
2023-12-30T13:27:56.648Z,97980.09
2023-12-30T13:30:25.443Z,97963.25
2023-12-30T13:32:57.716Z,97970.09
2023-12-30T13:35:35.363Z,97973.31
2023-12-30T13:38:07.811Z,97964.50
2023-12-30T13:40:37.585Z,97967.72
2023-12-30T13:43:09.426Z,97965.31
2023-12-30T13:45:40.845Z,97962.50
2023-12-30T13:51:21.466Z,97951.31
2023-12-30T13:53:50.135Z,97950.06
2023-12-30T13:56:22.381Z,97952.34
2023-12-30T13:58:52.482Z,97953.41
2023-12-30T14:01:23.876Z,97954.66
2023-12-30T14:03:53.860Z,97949.56
2023-12-30T14:06:31.421Z,97947.19
2023-12-30T14:09:04.963Z,97946.22
2023-12-30T14:11:35.839Z,97943.59
2023-12-30T14:14:10.511Z,97948.81
2023-12-30T14:16:40.139Z,97945.06
2023-12-30T14:19:09.313Z,97946.09
2023-12-30T14:21:40.386Z,97936.06
2023-12-30T14:24:13.138Z,97938.31
2023-12-30T14:26:41.943Z,97940.13
2023-12-30T14:29:10.717Z,97948.75
2023-12-30T14:31:39.594Z,97948.56
2023-12-30T14:34:11.135Z,97943.97
2023-12-30T14:36:41.113Z,97939.13
2023-12-30T14:39:11.863Z,97944.78
2023-12-30T14:41:41.224Z,97948.00
2023-12-30T14:44:09.771Z,97935.94
2023-12-30T14:46:38.413Z,97930.53
2023-12-30T14:49:06.045Z,97928.31
2023-12-30T14:51:34.635Z,97925.69
2023-12-30T14:54:05.306Z,97921.44
2023-12-30T14:56:35.061Z,97916.22
2023-12-30T14:59:03.974Z,97914.59
2023-12-30T15:01:33.037Z,97920.19
2023-12-30T15:04:03.696Z,97911.75
2023-12-30T15:06:32.624Z,97912.75
2023-12-30T15:09:05.654Z,97904.47
2023-12-30T15:11:36.461Z,97905.28
2023-12-30T15:14:05.757Z,97898.06
2023-12-30T15:16:34.425Z,97894.44
2023-12-30T15:19:03.133Z,97891.59
2023-12-30T15:21:31.716Z,97891.72
2023-12-30T15:24:00.427Z,97893.69
2023-12-30T15:26:28.964Z,97890.28
2023-12-30T15:28:58.810Z,97896.13
2023-12-30T15:31:27.588Z,97891.47
2023-12-30T15:33:56.095Z,97898.31
2023-12-30T15:36:24.970Z,97886.00
2023-12-30T15:38:53.456Z,97888.88
2023-12-30T15:41:23.816Z,97876.72
2023-12-30T15:43:52.380Z,97868.44
2023-12-30T15:46:22.343Z,97876.28
2023-12-30T15:48:50.976Z,97863.03
2023-12-30T15:51:19.879Z,97869.28
2023-12-30T15:53:49.454Z,97871.63
2023-12-30T15:56:18.035Z,97867.84
2023-12-30T15:58:46.943Z,97867.88
2023-12-30T16:01:15.655Z,97864.09
2023-12-30T16:03:45.582Z,97862.84
2023-12-30T16:06:14.979Z,97860.34
2023-12-30T16:08:43.766Z,97856.19
2023-12-30T16:11:12.221Z,97856.19
2023-12-30T16:13:40.953Z,97848.75
2023-12-30T16:16:09.589Z,97843.81
2023-12-30T16:18:38.277Z,97848.84
2023-12-30T16:21:08.536Z,97851.34
2023-12-30T16:23:37.365Z,97845.88
2023-12-30T16:26:06.464Z,97845.59
2023-12-30T16:28:36.002Z,97840.28
2023-12-30T16:31:05.409Z,97834.56
2023-12-30T16:33:34.149Z,97834.56
2023-12-30T16:36:02.722Z,97830.47
2023-12-30T16:38:32.543Z,97828.81
2023-12-30T16:41:01.104Z,97822.13
2023-12-30T16:43:33.904Z,97821.44
2023-12-30T16:46:02.772Z,97818.81
2023-12-30T16:48:31.855Z,97822.34
2023-12-30T16:51:00.394Z,97819.44
2023-12-30T16:53:28.816Z,97810.66
2023-12-30T16:56:00.909Z,97816.69
2023-12-30T16:58:31.905Z,97818.28
2023-12-30T17:01:01.643Z,97813.25
2023-12-30T17:03:30.236Z,97814.41
2023-12-30T17:05:58.843Z,97816.22
2023-12-30T17:08:27.267Z,97817.63
2023-12-30T17:10:57.112Z,97816.31
2023-12-30T17:13:34.818Z,97811.38
2023-12-30T17:16:09.461Z,97804.09
2023-12-30T17:18:38.422Z,97799.94
2023-12-30T17:21:06.996Z,97804.44
2023-12-30T17:23:36.077Z,97793.75
2023-12-30T17:26:06.386Z,97795.38
2023-12-30T17:28:35.511Z,97793.13
2023-12-30T17:31:06.877Z,97794.94
2023-12-30T17:33:35.511Z,97793.91
2023-12-30T17:36:04.058Z,97791.50
2023-12-30T17:38:32.563Z,97791.06
2023-12-30T17:41:01.043Z,97791.16
2023-12-30T17:43:31.073Z,97797.09
2023-12-30T17:45:59.673Z,97798.34
2023-12-30T17:48:28.196Z,97800.59
2023-12-30T17:50:56.775Z,97796.97
2023-12-30T17:53:25.738Z,97788.34
2023-12-30T17:55:54.340Z,97790.41
2023-12-30T17:58:22.935Z,97800.41
2023-12-30T18:00:52.948Z,97793.66
2023-12-30T18:03:21.595Z,97795.56
2023-12-30T18:05:50.158Z,97787.09
2023-12-30T18:08:18.747Z,97791.84
2023-12-30T18:10:47.265Z,97791.59
2023-12-30T18:13:16.318Z,97789.06
2023-12-30T18:15:44.900Z,97780.91
2023-12-30T18:18:14.779Z,97782.25
2023-12-30T18:20:43.525Z,97790.34
2023-12-30T18:23:12.005Z,97795.72
2023-12-30T18:25:40.704Z,97794.13
2023-12-30T18:28:09.193Z,97792.94
2023-12-30T18:30:38.362Z,97780.16
2023-12-30T18:33:08.037Z,97768.59
2023-12-30T18:35:39.045Z,97766.78
2023-12-30T18:38:07.506Z,97771.38
2023-12-30T18:40:38.053Z,97766.50
2023-12-30T18:43:06.641Z,97767.13
2023-12-30T18:45:35.162Z,97763.84
2023-12-30T18:48:04.338Z,97758.88
2023-12-30T18:50:33.382Z,97771.13
2023-12-30T18:53:03.702Z,97769.03
2023-12-30T18:55:33.996Z,97770.84
2023-12-30T18:58:02.622Z,97767.50
2023-12-30T19:00:31.257Z,97763.91
2023-12-30T19:03:00.096Z,97765.34
2023-12-30T19:05:30.386Z,97759.97
2023-12-30T19:07:59.017Z,97761.31
2023-12-30T19:10:29.895Z,97751.25
2023-12-30T19:12:58.585Z,97751.25
2023-12-30T19:15:27.160Z,97746.47
2023-12-30T19:17:55.762Z,97743.34
2023-12-30T19:20:24.362Z,97741.28
2023-12-30T19:22:53.144Z,97737.84
2023-12-30T19:25:21.755Z,97726.88
2023-12-30T19:27:52.730Z,97723.72
2023-12-30T19:30:21.279Z,97721.38
2023-12-30T19:32:49.938Z,97724.78
2023-12-30T19:35:20.414Z,97721.81
2023-12-30T19:37:49.398Z,97714.16
2023-12-30T19:40:18.404Z,97712.56
2023-12-30T19:42:46.909Z,97712.81
2023-12-30T19:45:17.072Z,97709.84
2023-12-30T19:47:45.635Z,97699.03
2023-12-30T19:50:14.495Z,97692.47
2023-12-30T19:52:43.257Z,97695.06
2023-12-30T19:55:11.705Z,97687.44
2023-12-30T19:57:40.182Z,97689.84
2023-12-30T20:00:13.686Z,97678.44
2023-12-30T20:02:43.896Z,97680.88
2023-12-30T20:05:14.417Z,97682.84
2023-12-30T20:07:43.288Z,97680.06
2023-12-30T20:10:12.786Z,97684.19
2023-12-30T20:12:41.546Z,97681.66
2023-12-30T20:15:10.390Z,97679.31
2023-12-30T20:17:39.058Z,97668.13
2023-12-30T20:20:11.794Z,97669.38
2023-12-30T20:22:40.320Z,97669.97
2023-12-30T20:25:09.750Z,97669.25
2023-12-30T20:27:38.322Z,97670.25
2023-12-30T20:30:08.396Z,97659.25
2023-12-30T20:32:37.876Z,97664.09
2023-12-30T20:35:08.835Z,97672.72
2023-12-30T20:37:37.805Z,97663.88
2023-12-30T20:40:09.535Z,97667.13
2023-12-30T20:42:38.734Z,97663.34
2023-12-30T20:45:07.799Z,97664.16
2023-12-30T20:47:36.426Z,97660.53
2023-12-30T20:50:05.984Z,97658.72
2023-12-30T20:52:37.722Z,97659.53
2023-12-30T20:55:07.800Z,97644.50
2023-12-30T20:57:36.532Z,97646.09
2023-12-30T21:00:06.022Z,97649.34
2023-12-30T21:02:34.427Z,97644.13
2023-12-30T21:05:03.005Z,97638.69
2023-12-30T21:07:31.477Z,97638.53
2023-12-30T21:10:01.345Z,97637.28
2023-12-30T21:12:29.821Z,97644.13
2023-12-30T21:14:58.606Z,97641.53
2023-12-30T21:17:27.092Z,97639.72
2023-12-30T21:19:55.684Z,97627.50
2023-12-30T21:22:25.286Z,97630.69
2023-12-30T21:24:54.705Z,97621.88
2023-12-30T21:27:24.503Z,97624.50
2023-12-30T21:29:53.048Z,97625.09
2023-12-30T21:32:21.615Z,97616.66
2023-12-30T21:34:51.636Z,97606.84
2023-12-30T21:37:20.547Z,97606.84
2023-12-30T21:39:49.177Z,97613.66
2023-12-30T21:42:17.653Z,97607.22
2023-12-30T21:44:49.657Z,97605.59
2023-12-30T21:47:18.264Z,97592.75
2023-12-30T21:49:46.861Z,97596.19
2023-12-30T21:52:17.549Z,97594.16
2023-12-30T21:54:48.247Z,97596.78
2023-12-30T21:57:16.830Z,97597.38
2023-12-30T21:59:46.675Z,97584.34
2023-12-30T22:02:15.376Z,97582.75
2023-12-30T22:04:43.915Z,97584.34
2023-12-30T22:07:12.817Z,97578.34
2023-12-30T22:09:41.272Z,97579.91
2023-12-30T22:12:09.795Z,97572.31
2023-12-30T22:14:39.642Z,97572.69
2023-12-30T22:17:11.189Z,97568.63
2023-12-30T22:19:40.051Z,97566.66
2023-12-30T22:22:09.239Z,97564.63
2023-12-30T22:24:37.735Z,97559.56
2023-12-30T22:27:06.609Z,97554.00
2023-12-30T22:29:35.080Z,97551.72
2023-12-30T22:32:03.780Z,97558.53
2023-12-30T22:34:33.665Z,97553.31
2023-12-30T22:37:02.146Z,97542.03
2023-12-30T22:39:30.821Z,97540.81
2023-12-30T22:41:59.964Z,97535.97
2023-12-30T22:44:28.402Z,97535.75
2023-12-30T22:46:57.043Z,97534.31
2023-12-30T22:49:25.644Z,97536.00
2023-12-30T22:51:55.607Z,97523.78
2023-12-30T22:54:24.271Z,97521.31
2023-12-30T22:56:52.720Z,97518.53
2023-12-30T22:59:21.681Z,97507.84
2023-12-30T23:01:50.248Z,97496.56
2023-12-30T23:04:18.744Z,97495.16
2023-12-30T23:06:48.855Z,97494.34
2023-12-30T23:09:19.744Z,97487.72
2023-12-30T23:11:48.329Z,97482.28
2023-12-30T23:14:16.860Z,97483.44
2023-12-30T23:16:46.588Z,97475.78
2023-12-30T23:19:15.072Z,97473.16
2023-12-30T23:21:43.588Z,97469.75
2023-12-30T23:24:12.033Z,97468.47
2023-12-30T23:26:42.065Z,97452.19
2023-12-30T23:29:10.701Z,97444.31
2023-12-30T23:31:42.369Z,97441.28
2023-12-30T23:34:11.333Z,97431.06
2023-12-30T23:36:39.873Z,97422.44
2023-12-30T23:39:08.651Z,97422.47
2023-12-30T23:41:37.126Z,97418.91
2023-12-30T23:44:07.035Z,97412.38
2023-12-30T23:46:35.743Z,97404.94
2023-12-30T23:49:04.241Z,97404.31
2023-12-30T23:51:32.697Z,97395.41
2023-12-30T23:54:01.243Z,97394.97
2023-12-30T23:56:29.763Z,97387.28
2023-12-30T23:58:58.246Z,97381.63
